Time;durP1;ratioP1;P1;durP2;ratioP2;P2;SDS_P1;SDS_P2;PMS_P1;PMS_P2;Temp;Humidity;BMP_temperature;BMP_pressure;BME280_temperature;BME280_humidity;BME280_pressure;Samples;Min_cycle;Max_cycle;Signal;HPM_P1;HPM_P2
2023/06/09 00:00:10;;;;;;;10.10;6.40;;;;;;;15.42;100.00;101083.80;109643;1251;71822;-87
2023/06/09 00:02:38;;;;;;;10.80;7.40;;;;;;;15.39;100.00;101082.29;109636;1251;62938;-87
2023/06/09 00:05:06;;;;;;;17.90;8.60;;;;;;;15.35;100.00;101086.63;109568;1253;72695;-87
2023/06/09 00:07:36;;;;;;;13.30;8.40;;;;;;;15.30;100.00;101089.59;109627;1251;60590;-86
2023/06/09 00:10:04;;;;;;;11.20;7.30;;;;;;;15.26;100.00;101086.05;109680;1252;60076;-87
2023/06/09 00:12:31;;;;;;;11.20;7.50;;;;;;;15.21;100.00;101086.91;109648;1251;71847;-86
2023/06/09 00:14:59;;;;;;;13.20;7.50;;;;;;;15.16;100.00;101084.66;109692;1251;63753;-86
2023/06/09 00:17:29;;;;;;;11.10;6.40;;;;;;;15.10;100.00;101084.39;109322;1252;72691;-87
2023/06/09 00:20:03;;;;;;;10.20;6.50;;;;;;;15.05;100.00;101087.55;109596;1252;60925;-87
2023/06/09 00:22:31;;;;;;;10.40;8.00;;;;;;;14.99;100.00;101085.52;109646;1251;61409;-87
2023/06/09 00:24:59;;;;;;;9.30;6.60;;;;;;;14.94;100.00;101083.38;109615;1251;71614;-86
2023/06/09 00:27:26;;;;;;;9.20;6.30;;;;;;;14.89;100.00;101081.80;109605;1251;62488;-86
2023/06/09 00:29:54;;;;;;;9.30;6.50;;;;;;;14.85;100.00;101078.03;109597;1253;71746;-86
2023/06/09 00:32:22;;;;;;;12.20;6.40;;;;;;;14.80;100.00;101073.27;109640;1251;61696;-85
2023/06/09 00:34:49;;;;;;;9.30;5.90;;;;;;;14.75;100.00;101072.39;109398;1251;60042;-87
2023/06/09 00:37:17;;;;;;;9.90;6.70;;;;;;;14.71;100.00;101076.58;109629;1251;71654;-85
2023/06/09 00:39:45;;;;;;;11.20;6.40;;;;;;;14.65;100.00;101076.59;109621;1251;63580;-86
2023/06/09 00:42:12;;;;;;;7.90;6.10;;;;;;;14.62;100.00;101072.80;109626;1251;72699;-87
2023/06/09 00:44:40;;;;;;;8.10;6.30;;;;;;;14.57;100.00;101070.32;109647;1252;61736;-86
2023/06/09 00:50:03;;;;;;;10.60;6.50;;;;;;;14.53;100.00;101067.71;106096;1291;599437;-85
2023/06/09 00:52:31;;;;;;;13.60;7.10;;;;;;;14.49;100.00;101069.61;105988;1269;60583;-84
2023/06/09 00:55:00;;;;;;;11.50;7.10;;;;;;;14.45;100.00;101070.23;105020;1266;60146;-86
2023/06/09 00:57:29;;;;;;;8.80;6.90;;;;;;;14.41;100.00;101074.56;105070;1266;72279;-87
2023/06/09 00:59:57;;;;;;;8.80;6.40;;;;;;;14.38;100.00;101071.79;105168;1265;62964;-87
2023/06/09 01:02:24;;;;;;;8.60;6.30;;;;;;;14.33;100.00;101070.38;105464;1260;71546;-88
2023/06/09 01:04:54;;;;;;;10.20;6.00;;;;;;;14.28;100.00;101071.05;105111;1255;747223;-91
2023/06/09 01:07:28;;;;;;;9.00;7.40;;;;;;;14.24;100.00;101071.48;105695;1259;59318;-88
2023/06/09 01:09:56;;;;;;;;;;;;;;;14.20;100.00;101073.73;105697;1254;70729;-90
2023/06/09 01:12:32;;;;;;;9.40;5.80;;;;;;;14.16;100.00;101071.17;105756;1255;64134;-88
2023/06/09 01:15:09;;;;;;;11.70;6.50;;;;;;;14.13;100.00;101069.27;105733;1256;71146;-86
2023/06/09 01:17:38;;;;;;;13.10;6.90;;;;;;;14.09;100.00;101071.48;105772;1256;61625;-88
2023/06/09 01:20:07;;;;;;;11.20;5.90;;;;;;;14.06;100.00;101070.39;105643;1257;60001;-89
2023/06/09 01:22:49;;;;;;;10.00;6.90;;;;;;;14.04;100.00;101067.38;106159;1254;71973;-87
2023/06/09 01:25:26;;;;;;;12.40;7.20;;;;;;;14.02;100.00;101070.00;105863;1259;62807;-89
2023/06/09 01:27:57;;;;;;;11.30;6.70;;;;;;;14.00;100.00;101064.33;107165;1254;72494;-87
2023/06/09 01:30:29;;;;;;;12.00;6.70;;;;;;;13.99;100.00;101065.45;108089;1254;60456;-86
2023/06/09 01:32:57;;;;;;;13.70;7.20;;;;;;;13.98;100.00;101067.83;107492;1260;59580;-86
2023/06/09 01:35:25;;;;;;;14.60;7.40;;;;;;;13.96;100.00;101065.87;105915;1262;71271;-85
2023/06/09 01:37:55;;;;;;;10.60;6.90;;;;;;;13.94;100.00;101066.34;106123;1254;62945;-87
2023/06/09 01:40:23;;;;;;;15.90;8.60;;;;;;;13.93;100.00;101066.58;105585;1258;71638;-87
2023/06/09 01:42:50;;;;;;;11.10;7.60;;;;;;;13.91;100.00;101063.02;105467;1255;60390;-86
2023/06/09 01:45:18;;;;;;;16.80;9.00;;;;;;;13.89;100.00;101066.66;105533;1259;59944;-87
2023/06/09 01:47:46;;;;;;;13.40;7.80;;;;;;;13.86;100.00;101061.20;105662;1254;72713;-87
2023/06/09 01:50:19;;;;;;;14.20;7.90;;;;;;;13.83;100.00;101059.64;105569;1260;64214;-87
2023/06/09 01:52:53;;;;;;;16.10;7.80;;;;;;;13.81;100.00;101062.98;105565;1259;72724;-87
2023/06/09 01:55:30;;;;;;;13.50;8.00;;;;;;;13.77;100.00;101064.63;105649;1256;60485;-88
2023/06/09 01:58:21;;;;;;;30.70;13.30;;;;;;;13.75;100.00;101065.14;105664;1259;59727;-88
2023/06/09 02:00:49;;;;;;;24.80;10.10;;;;;;;13.71;100.00;101069.77;105527;1260;73713;-87
2023/06/09 02:03:20;;;;;;;21.20;9.90;;;;;;;13.70;100.00;101072.52;105619;1257;62729;-88
2023/06/09 02:05:47;;;;;;;20.00;10.50;;;;;;;13.69;100.00;101069.73;105631;1258;71247;-88
2023/06/09 02:08:20;;;;;;;18.60;9.20;;;;;;;13.68;100.00;101068.02;105783;1257;61688;-86
2023/06/09 02:10:48;;;;;;;16.20;8.70;;;;;;;13.66;100.00;101068.48;105963;1251;59697;-87
2023/06/09 02:13:18;;;;;;;20.00;10.10;;;;;;;13.65;100.00;101070.35;105905;1251;71846;-90
2023/06/09 02:15:46;;;;;;;17.30;9.80;;;;;;;13.63;100.00;101070.48;106000;1253;62695;-91
2023/06/09 02:18:15;;;;;;;20.20;9.90;;;;;;;13.62;100.00;101067.33;105772;1251;72559;-87
2023/06/09 02:20:43;;;;;;;19.00;10.00;;;;;;;13.62;100.00;101070.16;105897;1251;61946;-87
2023/06/09 02:23:13;;;;;;;20.80;10.90;;;;;;;13.62;100.00;101063.48;105973;1256;59540;-88
2023/06/09 02:25:41;;;;;;;24.40;11.40;;;;;;;13.63;100.00;101064.32;105807;1251;74095;-89
2023/06/09 02:28:08;;;;;;;25.00;10.90;;;;;;;13.63;100.00;101065.88;105828;1251;62885;-86
2023/06/09 02:30:36;;;;;;;28.10;11.20;;;;;;;13.64;100.00;101066.38;105965;1253;72671;-86
2023/06/09 02:33:04;;;;;;;22.30;11.20;;;;;;;13.65;100.00;101070.18;105887;1253;61291;-86
2023/06/09 02:35:32;;;;;;;22.20;11.70;;;;;;;13.65;100.00;101065.93;105750;1251;59750;-87
2023/06/09 02:38:05;;;;;;;24.30;12.90;;;;;;;13.67;100.00;101068.27;105888;1253;73708;-87
2023/06/09 02:40:32;;;;;;;27.40;13.60;;;;;;;13.68;100.00;101065.38;105947;1256;62652;-87
2023/06/09 02:43:00;;;;;;;25.80;12.80;;;;;;;13.71;100.00;101065.02;105875;1251;72687;-86
2023/06/09 02:45:27;;;;;;;27.20;13.30;;;;;;;13.74;100.00;101069.95;105903;1256;60406;-87
2023/06/09 02:47:56;;;;;;;31.50;14.70;;;;;;;13.77;100.00;101067.48;105691;1258;59639;-87
2023/06/09 02:50:24;;;;;;;28.00;14.20;;;;;;;13.80;100.00;101065.00;105854;1256;73119;-87
2023/06/09 02:52:56;;;;;;;32.20;14.70;;;;;;;13.85;100.00;101065.34;105754;1251;62291;-88
2023/06/09 02:55:25;;;;;;;34.40;14.00;;;;;;;13.91;100.00;101070.59;105763;1252;72882;-87
2023/06/09 02:57:52;;;;;;;25.10;12.70;;;;;;;13.97;100.00;101070.67;105832;1253;61559;-88
2023/06/09 03:00:21;;;;;;;25.30;12.40;;;;;;;14.05;100.00;101074.33;105845;1255;60038;-82
2023/06/09 03:02:51;;;;;;;26.00;12.00;;;;;;;14.15;100.00;101079.66;105864;1251;72113;-85
2023/06/09 03:05:24;;;;;;;26.40;14.00;;;;;;;14.26;100.00;101083.65;105789;1253;62742;-83
2023/06/09 03:07:53;;;;;;;26.50;13.00;;;;;;;14.38;100.00;101084.12;106005;1253;74345;-89
2023/06/09 03:10:22;;;;;;;24.20;13.10;;;;;;;14.50;100.00;101082.91;105777;1256;60684;-87
2023/06/09 03:12:50;;;;;;;28.30;13.90;;;;;;;14.62;100.00;101084.77;105755;1251;60335;-87
2023/06/09 03:15:18;;;;;;;33.30;14.20;;;;;;;14.75;100.00;101085.30;105852;1253;71848;-89
2023/06/09 03:17:47;;;;;;;28.70;14.80;;;;;;;14.87;100.00;101084.23;106025;1251;62272;-87
2023/06/09 03:20:16;;;;;;;26.40;14.00;;;;;;;14.99;100.00;101087.63;105807;1253;71456;-89
2023/06/09 03:22:45;;;;;;;24.30;13.70;;;;;;;15.10;100.00;101089.63;105825;1256;61865;-88
2023/06/09 03:25:13;;;;;;;25.30;13.70;;;;;;;15.23;100.00;101089.98;105894;1251;59631;-87
2023/06/09 03:27:41;;;;;;;26.70;14.10;;;;;;;15.33;100.00;101089.23;105866;1251;72009;-91
2023/06/09 03:33:01;;;;;;;25.10;14.10;;;;;;;15.58;100.00;101093.27;102816;1293;600783;-85
2023/06/09 03:35:52;;;;;;;25.30;14.40;;;;;;;15.69;100.00;101092.24;104905;1271;62972;-86
2023/06/09 03:38:21;;;;;;;33.30;15.40;;;;;;;15.80;100.00;101093.58;105066;1271;59346;-87
2023/06/09 03:40:48;;;;;;;29.30;13.60;;;;;;;15.90;100.00;101092.48;105028;1265;72247;-88
2023/06/09 03:43:16;;;;;;;30.40;14.90;;;;;;;16.02;100.00;101095.64;105138;1281;63858;-87
2023/06/09 03:45:44;;;;;;;33.40;14.10;;;;;;;16.14;100.00;101091.53;104758;1273;635925;-88
2023/06/09 03:48:12;;;;;;;29.60;14.70;;;;;;;16.28;100.00;101092.98;107564;1261;61784;-87
2023/06/09 03:50:40;;;;;;;24.10;14.30;;;;;;;16.42;100.00;101092.27;108854;1261;59040;-86
2023/06/09 03:53:09;;;;;;;28.40;14.30;;;;;;;16.57;100.00;101088.81;106076;1267;70436;-86
2023/06/09 03:55:38;;;;;;;32.50;14.80;;;;;;;16.72;100.00;101089.18;105302;1267;65456;-88
2023/06/09 03:58:06;;;;;;;29.70;16.70;;;;;;;16.87;100.00;101092.45;105330;1266;73017;-87
2023/06/09 04:00:35;;;;;;;35.00;16.30;;;;;;;17.01;100.00;101092.61;105283;1267;62264;-89
2023/06/09 04:03:03;;;;;;;30.00;15.50;;;;;;;17.16;100.00;101092.84;105322;1267;60081;-89
2023/06/09 04:05:31;;;;;;;26.60;16.10;;;;;;;17.30;100.00;101091.14;105224;1261;73388;-88
2023/06/09 04:07:58;;;;;;;33.90;16.90;;;;;;;17.46;100.00;101088.61;109243;1254;64538;-88
2023/06/09 04:10:26;;;;;;;34.00;17.20;;;;;;;17.64;100.00;101090.39;109219;1254;73168;-88
2023/06/09 04:12:54;;;;;;;29.40;16.70;;;;;;;17.84;100.00;101090.66;109392;1254;60451;-87
2023/06/09 04:15:22;;;;;;;28.00;16.00;;;;;;;18.07;100.00;101094.58;109241;1254;58817;-87
2023/06/09 04:17:51;;;;;;;24.10;15.00;;;;;;;18.38;100.00;101097.30;109241;1254;72263;-88
2023/06/09 04:20:22;;;;;;;26.90;16.00;;;;;;;18.73;100.00;101093.94;109193;1254;63762;-87
2023/06/09 04:22:51;;;;;;;31.20;15.70;;;;;;;19.14;100.00;101095.28;109209;1254;72649;-88
2023/06/09 04:25:25;;;;;;;28.20;15.40;;;;;;;19.59;100.00;101104.95;109352;1257;60622;-88
2023/06/09 04:27:56;;;;;;;28.10;15.60;;;;;;;20.04;100.00;101104.74;109371;1254;60318;-88
2023/06/09 04:30:29;;;;;;;28.90;15.80;;;;;;;20.47;100.00;101101.84;109364;1254;71518;-89
2023/06/09 04:33:03;;;;;;;33.40;16.50;;;;;;;20.89;100.00;101097.73;109577;1250;63726;-87
2023/06/09 04:35:31;;;;;;;24.30;15.50;;;;;;;21.24;100.00;101096.67;109628;1251;71621;-87
2023/06/09 04:38:00;;;;;;;26.10;16.40;;;;;;;21.52;100.00;101093.16;109597;1251;60355;-88
2023/06/09 04:40:31;;;;;;;25.20;15.90;;;;;;;21.79;100.00;101095.38;109490;1254;58746;-88
2023/06/09 04:43:01;;;;;;;40.10;17.80;;;;;;;22.03;100.00;101093.98;109686;1251;74151;-86
2023/06/09 04:45:34;;;;;;;36.70;17.80;;;;;;;22.35;100.00;101093.79;109602;1251;63511;-87
2023/06/09 04:48:14;;;;;;;39.10;17.60;;;;;;;22.73;100.00;101096.77;109471;1251;71109;-88
2023/06/09 04:50:44;;;;;;;34.10;19.00;;;;;;;23.13;100.00;101093.69;109443;1251;60393;-86
2023/06/09 04:53:12;;;;;;;30.70;18.80;;;;;;;23.62;99.97;101096.73;109657;1251;60119;-87
2023/06/09 04:55:43;;;;;;;42.90;20.60;;;;;;;24.14;98.14;101096.77;109524;1251;73249;-88
2023/06/09 04:58:15;;;;;;;35.50;19.70;;;;;;;24.63;95.31;101091.58;109568;1251;62491;-87
2023/06/09 05:00:43;;;;;;;39.20;20.70;;;;;;;25.12;92.89;101091.76;109564;1251;70608;-88
2023/06/09 05:03:17;;;;;;;43.80;20.60;;;;;;;25.59;89.40;101093.73;109628;1253;59164;-88
2023/06/09 05:05:46;;;;;;;40.00;21.10;;;;;;;26.02;86.27;101092.37;109613;1251;59555;-87
2023/06/09 05:08:14;;;;;;;33.70;19.20;;;;;;;26.43;83.72;101089.90;109686;1254;73067;-88
2023/06/09 05:10:42;;;;;;;33.20;20.30;;;;;;;26.86;74.55;101088.14;109687;1251;64417;-87
2023/06/09 05:16:33;;;;;;;36.00;20.90;;;;;;;27.81;63.37;101083.35;102776;1290;599545;-88
2023/06/09 05:19:03;;;;;;;42.50;24.10;;;;;;;28.17;57.46;101081.58;105050;1269;60158;-94
2023/06/09 05:21:31;;;;;;;37.90;22.50;;;;;;;28.45;55.31;101080.18;105301;1267;62208;-90
2023/06/09 05:23:59;;;;;;;41.90;22.10;;;;;;;28.75;53.67;101078.86;105107;1282;71093;-86
2023/06/09 05:26:28;;;;;;;30.00;18.70;;;;;;;29.07;50.36;101072.83;105103;1272;62423;-92
2023/06/09 05:28:55;;;;;;;28.60;18.30;;;;;;;29.41;46.36;101074.52;105368;1261;72836;-88
2023/06/09 05:31:23;;;;;;;32.80;18.20;;;;;;;29.80;45.79;101071.26;104988;1264;613773;-90
2023/06/09 05:33:51;;;;;;;26.70;16.50;;;;;;;30.18;42.72;101068.32;105490;1259;59998;-89
2023/06/09 05:36:19;;;;;;;27.20;14.60;;;;;;;30.48;40.27;101069.23;105648;1258;72172;-89
2023/06/09 05:38:50;;;;;;;31.00;13.70;;;;;;;30.77;38.27;101065.38;105723;1258;62244;-89
2023/06/09 05:53:24;;;;;;;21.60;10.40;;;;;;;32.15;32.11;101049.16;103174;1289;615676;-90
2023/06/09 05:55:53;;;;;;;19.20;9.50;;;;;;;32.37;31.85;101047.20;106663;1259;60084;-90
2023/06/09 05:58:20;;;;;;;28.20;10.10;;;;;;;32.48;31.06;101047.00;106586;1254;60616;-88
2023/06/09 06:00:51;;;;;;;19.60;9.40;;;;;;;32.63;31.56;101045.72;106096;1263;70728;-90
2023/06/09 06:03:18;;;;;;;16.50;7.60;;;;;;;32.83;30.48;101048.21;105974;1257;63864;-90
2023/06/09 06:05:45;;;;;;;16.60;7.50;;;;;;;33.03;29.70;101041.89;105572;1254;863442;-88
2023/06/09 06:08:12;;;;;;;21.90;7.60;;;;;;;33.21;28.89;101041.98;106221;1253;60285;-93
2023/06/09 06:10:41;;;;;;;18.30;8.70;;;;;;;33.31;29.20;101036.48;106720;1254;60541;-90
2023/06/09 06:13:13;;;;;;;18.60;7.90;;;;;;;33.44;28.89;101033.81;107387;1253;72120;-88
2023/06/09 06:15:41;;;;;;;17.10;9.30;;;;;;;33.59;28.61;101032.94;107349;1253;63901;-87
2023/06/09 06:18:09;;;;;;;16.40;9.20;;;;;;;33.80;28.75;101034.91;107079;1252;73594;-88
2023/06/09 06:20:36;;;;;;;20.90;9.00;;;;;;;34.04;28.39;101034.48;107123;1253;60016;-86
2023/06/09 06:23:03;;;;;;;10.90;4.90;;;;;;;34.23;27.26;101035.70;107170;1253;59634;-87
2023/06/09 06:25:29;;;;;;;10.20;5.40;;;;;;;34.25;26.19;101034.38;107032;1252;74873;-90
2023/06/09 06:27:57;;;;;;;13.70;5.40;;;;;;;34.20;26.73;101030.80;107136;1257;63916;-90
2023/06/09 06:30:26;;;;;;;8.50;5.80;;;;;;;34.28;26.20;101030.67;107023;1253;72454;-91
2023/06/09 06:32:56;;;;;;;13.50;5.20;;;;;;;34.38;26.73;101025.84;106385;1253;60398;-89
2023/06/09 06:35:25;;;;;;;12.70;5.40;;;;;;;34.51;26.46;101027.50;106329;1253;60208;-89
2023/06/09 06:37:52;;;;;;;11.10;4.20;;;;;;;34.58;26.34;101024.23;106344;1254;73150;-89
2023/06/09 06:40:19;;;;;;;10.20;5.40;;;;;;;34.63;26.91;101019.77;106647;1253;64390;-89
2023/06/09 06:42:47;;;;;;;9.80;4.80;;;;;;;34.74;26.42;101018.36;106959;1254;72689;-90
2023/06/09 06:45:18;;;;;;;12.90;6.50;;;;;;;34.88;25.38;101019.21;106771;1254;59670;-90
2023/06/09 06:47:49;;;;;;;15.50;7.40;;;;;;;34.82;24.86;101012.17;108962;1253;59509;-88
2023/06/09 06:50:34;;;;;;;9.50;5.90;;;;;;;34.76;25.78;101008.30;108978;1253;75828;-90
2023/06/09 06:53:05;;;;;;;7.30;3.90;;;;;;;34.94;25.78;101009.61;107906;1253;63810;-89
2023/06/09 07:07:57;;;;;;;6.00;3.30;;;;;;;35.54;24.60;100997.02;104043;1282;614173;-89
2023/06/09 07:10:28;;;;;;;10.00;3.50;;;;;;;35.72;25.03;100994.64;105570;1267;60405;-89
2023/06/09 07:12:55;;;;;;;7.80;3.10;;;;;;;35.94;25.03;100996.41;105996;1267;60241;-89
2023/06/09 07:15:22;;;;;;;3.90;3.00;;;;;;;36.14;24.25;100994.57;105112;1267;71192;-90
2023/06/09 07:17:50;;;;;;;9.50;3.60;;;;;;;36.33;24.18;100997.50;105901;1267;62793;-91
2023/06/09 07:20:17;;;;;;;8.60;3.70;;;;;;;36.53;24.16;100994.84;105127;1272;723313;-87
2023/06/09 07:22:50;;;;;;;8.60;3.80;;;;;;;36.69;24.11;100992.30;106027;1263;59725;-89
2023/06/09 07:25:18;;;;;;;8.10;3.50;;;;;;;36.68;23.13;100991.96;107039;1260;59337;-89
2023/06/09 07:27:47;;;;;;;4.00;2.70;;;;;;;36.73;23.42;100997.48;107356;1254;72477;-90
2023/06/09 07:30:14;;;;;;;3.60;2.00;;;;;;;36.85;22.37;100994.25;107048;1254;59369;-87
2023/06/09 07:32:43;;;;;;;5.20;2.20;;;;;;;36.90;21.35;100992.77;106985;1254;62908;-87
2023/06/09 07:35:13;;;;;;;3.50;1.90;;;;;;;36.80;21.19;101001.36;106796;1254;59717;-87
2023/06/09 07:37:43;;;;;;;5.10;2.00;;;;;;;36.69;21.37;100997.77;106688;1255;60622;-88
2023/06/09 07:40:10;;;;;;;4.20;2.90;;;;;;;36.65;21.53;101001.88;106083;1254;73120;-89
2023/06/09 07:42:52;;;;;;;6.50;2.10;;;;;;;36.61;21.19;100999.25;107701;1253;59613;-88
2023/06/09 07:45:23;;;;;;;6.20;2.30;;;;;;;36.47;20.97;100997.71;106594;1253;74566;-88
2023/06/09 07:47:52;;;;;;;4.30;2.30;;;;;;;36.37;21.62;100991.48;106104;1256;60041;-88
2023/06/09 07:50:19;;;;;;;6.10;2.20;;;;;;;36.39;21.53;100984.63;106131;1257;60122;-89
2023/06/09 07:52:46;;;;;;;6.20;2.00;;;;;;;36.51;22.11;100986.06;106521;1254;72854;-87
2023/06/09 07:55:12;;;;;;;4.10;1.60;;;;;;;36.53;20.76;100994.83;106487;1254;59659;-90
2023/06/09 07:57:43;;;;;;;6.00;2.20;;;;;;;36.31;19.88;100990.91;106135;1256;63977;-89
2023/06/09 08:00:12;;;;;;;8.10;2.40;;;;;;;36.14;21.20;100986.33;106431;1255;60055;-86
2023/06/09 08:02:42;;;;;;;4.60;1.30;;;;;;;36.16;21.25;100978.23;106194;1256;60200;-88
2023/06/09 08:05:11;;;;;;;8.20;1.70;;;;;;;36.34;21.25;100986.30;106060;1254;72845;-89
2023/06/09 08:07:38;;;;;;;5.60;1.60;;;;;;;36.32;20.32;100988.74;106101;1254;63921;-89
2023/06/09 08:10:06;;;;;;;2.60;2.10;;;;;;;36.23;20.40;100987.92;106706;1253;71288;-90
2023/06/09 08:12:36;;;;;;;5.00;1.70;;;;;;;36.08;20.36;100978.23;106046;1254;60873;-91
2023/06/09 08:15:03;;;;;;;5.70;2.30;;;;;;;36.05;20.78;100979.64;106308;1254;59773;-88
2023/06/09 08:17:30;;;;;;;2.40;1.80;;;;;;;36.15;20.94;100976.14;106065;1258;73077;-87
2023/06/09 08:19:58;;;;;;;6.90;1.80;;;;;;;36.35;20.78;100982.98;106115;1257;63907;-85
2023/06/09 08:22:25;;;;;;;5.40;1.60;;;;;;;36.49;19.95;100981.95;106022;1257;63320;-88
2023/06/09 08:24:51;;;;;;;3.70;1.60;;;;;;;36.54;19.67;100984.46;106346;1256;60302;-89
2023/06/09 08:27:18;;;;;;;3.30;1.50;;;;;;;36.55;19.45;100998.07;107364;1254;59221;-87
2023/06/09 08:29:46;;;;;;;2.30;1.90;;;;;;;36.45;19.39;100990.70;108863;1255;64446;-88
2023/06/09 08:32:13;;;;;;;3.50;1.70;;;;;;;36.40;20.23;100978.63;108922;1253;59081;-88
2023/06/09 08:34:41;;;;;;;6.60;2.10;;;;;;;36.58;20.63;100984.41;106953;1254;71824;-89
2023/06/09 08:37:08;;;;;;;5.60;1.90;;;;;;;36.67;19.54;100988.13;106744;1253;59549;-88
2023/06/09 08:39:36;;;;;;;6.50;2.60;;;;;;;36.48;19.17;100984.66;106463;1254;59646;-89
2023/06/09 08:42:09;;;;;;;3.70;1.90;;;;;;;36.27;19.20;100981.79;106313;1253;71800;-88
2023/06/09 08:44:40;;;;;;;3.80;1.30;;;;;;;36.09;19.97;100968.16;106290;1251;63815;-89
2023/06/09 08:47:08;;;;;;;3.50;1.90;;;;;;;36.07;20.43;100967.71;106425;1257;72670;-89
2023/06/09 08:49:34;;;;;;;7.60;1.90;;;;;;;36.08;19.69;100969.64;106326;1251;60667;-88
2023/06/09 08:52:04;;;;;;;11.30;3.20;;;;;;;36.04;19.91;100968.21;106387;1256;60383;-90
2023/06/09 08:54:32;;;;;;;7.00;1.80;;;;;;;35.95;19.79;100975.56;106195;1251;73326;-92
2023/06/09 08:56:59;;;;;;;5.40;2.00;;;;;;;35.72;20.01;100968.42;106064;1251;62597;-88
2023/06/09 08:59:26;;;;;;;4.00;1.90;;;;;;;35.49;21.02;100970.27;106245;1255;71503;-88
2023/06/09 09:01:53;;;;;;;1.60;1.20;;;;;;;35.34;20.73;100972.96;105949;1256;60616;-89
2023/06/09 09:04:20;;;;;;;4.80;1.70;;;;;;;35.23;20.98;100963.48;106495;1253;59772;-87
2023/06/09 09:06:47;;;;;;;4.20;2.00;;;;;;;35.19;21.45;100965.11;105884;1251;73564;-89
2023/06/09 09:09:13;;;;;;;4.30;1.40;;;;;;;35.11;21.11;100958.77;105956;1251;63878;-87
2023/06/09 09:11:41;;;;;;;6.10;2.60;;;;;;;34.91;20.89;100961.26;105960;1255;72480;-85
2023/06/09 09:14:09;;;;;;;6.30;2.50;;;;;;;34.61;21.31;100963.00;106014;1257;60350;-87
2023/06/09 09:16:36;;;;;;;3.70;2.10;;;;;;;34.34;21.39;100961.10;106100;1255;59981;-86
2023/06/09 09:19:03;;;;;;;7.70;3.00;;;;;;;34.15;21.43;100962.71;106111;1255;71776;-87
2023/06/09 09:21:30;;;;;;;5.20;2.20;;;;;;;33.92;21.66;100951.55;106004;1253;63193;-86
2023/06/09 09:24:00;;;;;;;5.60;2.90;;;;;;;33.73;22.01;100953.54;106108;1251;72644;-88
2023/06/09 09:26:31;;;;;;;5.00;3.10;;;;;;;33.60;22.35;100949.25;105941;1251;59657;-87
2023/06/09 09:29:15;;;;;;;7.90;2.50;;;;;;;33.59;22.62;100951.25;105982;1251;59609;-86
2023/06/09 09:31:44;;;;;;;5.10;3.30;;;;;;;33.66;22.40;100939.17;106009;1256;73158;-91
2023/06/09 09:34:16;;;;;;;16.00;3.60;;;;;;;33.85;22.52;100936.39;106059;1251;63946;-85
2023/06/09 09:36:56;;;;;;;5.70;2.80;;;;;;;34.14;22.86;100944.21;107180;1251;72785;-87
2023/06/09 09:39:24;;;;;;;5.20;1.70;;;;;;;34.40;21.57;100940.79;105977;1251;61638;-88
2023/06/09 09:42:02;;;;;;;1.80;1.70;;;;;;;34.58;21.44;100925.65;106272;1256;59725;-87
2023/06/09 09:44:46;;;;;;;4.70;2.00;;;;;;;34.83;21.85;100932.51;106187;1255;72866;-87
2023/06/09 09:47:17;;;;;;;33.00;6.70;;;;;;;34.98;20.99;100930.67;109548;1251;62604;-87
2023/06/09 09:50:02;;;;;;;6.80;2.50;;;;;;;35.03;20.81;100925.77;108970;1251;71402;-87
2023/06/09 09:52:30;;;;;;;7.20;1.70;;;;;;;35.15;21.06;100928.21;107310;1251;60149;-87
2023/06/09 09:55:04;;;;;;;2.90;2.00;;;;;;;35.12;20.97;100924.27;107128;1251;61798;-89
2023/06/09 09:57:34;;;;;;;7.10;2.40;;;;;;;34.92;21.44;100917.45;106174;1251;73070;-87
2023/06/09 10:00:12;;;;;;;8.70;2.50;;;;;;;34.72;22.03;100918.64;106236;1255;63768;-88
2023/06/09 10:02:41;;;;;;;7.00;1.70;;;;;;;34.66;21.72;100921.00;105980;1251;72494;-90
2023/06/09 10:05:08;;;;;;;4.90;2.60;;;;;;;34.61;21.80;100920.60;105856;1256;60155;-88
2023/06/09 10:07:38;;;;;;;8.10;4.20;;;;;;;34.53;21.76;100910.75;105985;1257;60325;-90
2023/06/09 10:10:08;;;;;;;8.90;3.70;;;;;;;34.44;22.38;100898.83;105903;1257;73178;-95
2023/06/09 10:12:36;;;;;;;8.00;3.10;;;;;;;34.57;22.43;100900.48;106023;1251;63955;-92
2023/06/09 10:15:08;;;;;;;4.10;2.10;;;;;;;34.62;22.50;100890.54;106009;1251;72696;-89
2023/06/09 10:17:35;;;;;;;6.60;2.60;;;;;;;34.63;21.74;100888.48;106110;1251;60468;-92
2023/06/09 10:20:05;;;;;;;3.00;2.70;;;;;;;34.48;22.29;100886.98;105967;1253;59747;-88
2023/06/09 10:22:32;;;;;;;7.80;2.50;;;;;;;34.52;23.01;100884.47;106051;1251;73029;-88
2023/06/09 10:25:00;;;;;;;8.40;2.70;;;;;;;34.60;22.89;100882.06;106022;1257;63644;-92
2023/06/09 10:27:28;;;;;;;10.40;2.20;;;;;;;34.70;23.18;100879.91;106061;1254;72660;-91
2023/06/09 10:29:56;;;;;;;2.70;1.80;;;;;;;34.72;22.50;100878.10;105955;1251;60277;-93
2023/06/09 10:32:26;;;;;;;4.20;2.30;;;;;;;34.82;22.47;100870.20;105926;1256;59789;-88
2023/06/09 10:34:54;;;;;;;4.60;1.80;;;;;;;34.75;22.28;100870.28;106193;1251;71811;-87
2023/06/09 10:37:31;;;;;;;6.70;2.80;;;;;;;34.57;21.39;100875.67;106108;1256;63784;-87
2023/06/09 10:40:30;;;;;;;6.40;5.60;;;;;;;34.39;21.59;100865.77;106018;1251;73123;-88
2023/06/09 10:43:15;;;;;;;5.70;2.10;;;;;;;34.42;21.30;100877.05;106070;1256;60317;-90
2023/06/09 10:45:50;;;;;;;5.40;3.00;;;;;;;34.44;21.48;100862.38;106111;1253;60749;-90
2023/06/09 10:48:39;;;;;;;4.80;2.60;;;;;;;34.52;21.61;100864.59;105883;1253;72408;-90
2023/06/09 10:51:39;;;;;;;4.40;3.50;;;;;;;34.69;21.92;100865.17;106336;1255;63895;-90
2023/06/09 10:54:15;;;;;;;9.30;3.00;;;;;;;34.96;22.11;100858.75;106060;1255;72467;-89
2023/06/09 10:56:46;;;;;;;5.50;3.10;;;;;;;35.04;21.28;100852.77;106037;1255;60233;-87
2023/06/09 10:59:25;;;;;;;5.10;2.90;;;;;;;34.89;21.68;100852.66;106154;1251;60288;-89
2023/06/09 11:01:59;;;;;;;5.40;3.20;;;;;;;34.72;21.81;100852.11;106084;1252;73089;-86
2023/06/09 11:04:41;;;;;;;7.10;3.30;;;;;;;34.58;21.92;100851.90;105906;1253;63770;-92
2023/06/09 11:07:09;;;;;;;215.50;192.60;;;;;;;34.30;22.03;100848.16;105947;1255;72778;-91
2023/06/09 11:09:36;;;;;;;611.70;508.00;;;;;;;34.11;22.11;100840.67;106224;1256;60324;-87
2023/06/09 11:12:05;;;;;;;658.70;483.20;;;;;;;33.96;22.65;100842.44;106494;1253;60371;-88
2023/06/09 11:14:45;;;;;;;43.30;32.00;;;;;;;33.91;22.10;100844.42;106430;1251;73083;-87
2023/06/09 11:17:16;;;;;;;21.60;15.50;;;;;;;33.83;22.11;100841.70;106262;1256;63971;-89
2023/06/09 11:19:48;;;;;;;7.50;3.90;;;;;;;33.74;22.63;100838.96;106192;1254;71446;-87
2023/06/09 11:22:15;;;;;;;83.60;71.70;;;;;;;33.72;22.41;100833.31;106416;1255;60541;-87
2023/06/09 11:24:48;;;;;;;9.00;6.10;;;;;;;33.70;22.14;100825.55;106115;1251;60454;-91
2023/06/09 11:27:20;;;;;;;8.80;5.90;;;;;;;33.67;23.04;100820.36;106096;1256;74176;-92
2023/06/09 11:30:07;;;;;;;5.40;3.40;;;;;;;33.60;22.66;100818.60;106133;1257;64006;-87
2023/06/09 11:32:49;;;;;;;3.90;2.30;;;;;;;33.42;23.59;100815.89;106207;1251;72558;-91
2023/06/09 11:35:23;;;;;;;9.30;4.40;;;;;;;33.23;23.19;100814.56;106008;1252;60481;-87
2023/06/09 11:37:51;;;;;;;3.40;2.40;;;;;;;33.04;24.00;100814.07;106104;1257;60381;-88
2023/06/09 11:40:18;;;;;;;4.00;3.40;;;;;;;32.87;23.99;100811.96;106306;1255;72056;-89
2023/06/09 11:42:46;;;;;;;9.10;3.10;;;;;;;32.72;24.54;100815.24;106424;1255;62481;-86
2023/06/09 11:45:13;;;;;;;36.50;20.50;;;;;;;32.65;24.37;100809.15;106293;1251;73009;-88
2023/06/09 11:47:41;;;;;;;7.80;3.90;;;;;;;32.61;24.62;100805.10;106121;1251;60502;-91
2023/06/09 11:50:12;;;;;;;4.20;3.00;;;;;;;32.49;23.93;100801.24;106316;1255;60447;-88
2023/06/09 11:52:43;;;;;;;5.80;2.30;;;;;;;32.22;23.92;100799.63;106086;1251;73914;-86